sensor_id;sensor_type;location;lat;lon;timestamp;temperature;humidity
31639;DHT22;18248;51.522;7.020;2023-08-24T00:02:41;19.80;99.90
31639;DHT22;18248;51.522;7.020;2023-08-24T00:05:40;19.80;99.90
31639;DHT22;18248;51.522;7.020;2023-08-24T00:08:39;19.70;99.90
31639;DHT22;18248;51.522;7.020;2023-08-24T00:11:38;19.70;99.90
31639;DHT22;18248;51.522;7.020;2023-08-24T00:14:36;19.70;99.90
31639;DHT22;18248;51.522;7.020;2023-08-24T00:17:37;19.70;99.90
31639;DHT22;18248;51.522;7.020;2023-08-24T00:20:36;19.70;99.90
31639;DHT22;18248;51.522;7.020;2023-08-24T00:23:35;19.70;99.90
31639;DHT22;18248;51.522;7.020;2023-08-24T00:26:34;19.70;99.90
31639;DHT22;18248;51.522;7.020;2023-08-24T00:29:33;19.70;99.90
31639;DHT22;18248;51.522;7.020;2023-08-24T00:32:31;19.60;99.90
31639;DHT22;18248;51.522;7.020;2023-08-24T00:35:31;19.60;99.90
31639;DHT22;18248;51.522;7.020;2023-08-24T00:38:30;19.60;99.90
31639;DHT22;18248;51.522;7.020;2023-08-24T00:41:28;19.60;99.90
31639;DHT22;18248;51.522;7.020;2023-08-24T00:44:28;19.50;99.90
31639;DHT22;18248;51.522;7.020;2023-08-24T00:47:27;19.50;99.90
31639;DHT22;18248;51.522;7.020;2023-08-24T00:50:25;19.50;99.90
31639;DHT22;18248;51.522;7.020;2023-08-24T00:53:25;19.50;99.90
31639;DHT22;18248;51.522;7.020;2023-08-24T00:56:25;19.40;99.90
31639;DHT22;18248;51.522;7.020;2023-08-24T00:59:24;19.40;99.90
31639;DHT22;18248;51.522;7.020;2023-08-24T01:02:23;19.40;99.90
31639;DHT22;18248;51.522;7.020;2023-08-24T01:05:21;19.30;99.90
31639;DHT22;18248;51.522;7.020;2023-08-24T01:08:21;19.30;99.90
31639;DHT22;18248;51.522;7.020;2023-08-24T01:11:55;19.30;99.90
31639;DHT22;18248;51.522;7.020;2023-08-24T01:15:14;19.20;99.90
31639;DHT22;18248;51.522;7.020;2023-08-24T01:18:16;19.20;99.90
31639;DHT22;18248;51.522;7.020;2023-08-24T01:21:17;19.20;99.90
31639;DHT22;18248;51.522;7.020;2023-08-24T01:24:33;19.10;99.90
31639;DHT22;18248;51.522;7.020;2023-08-24T01:27:36;19.20;99.90
31639;DHT22;18248;51.522;7.020;2023-08-24T01:30:35;19.10;99.90
31639;DHT22;18248;51.522;7.020;2023-08-24T01:33:34;19.10;99.90
31639;DHT22;18248;51.522;7.020;2023-08-24T01:36:35;19.10;99.90
31639;DHT22;18248;51.522;7.020;2023-08-24T01:39:46;19.10;99.90
31639;DHT22;18248;51.522;7.020;2023-08-24T01:42:51;19.10;99.90
31639;DHT22;18248;51.522;7.020;2023-08-24T01:45:53;19.10;99.90
31639;DHT22;18248;51.522;7.020;2023-08-24T01:48:53;19.10;99.90
31639;DHT22;18248;51.522;7.020;2023-08-24T01:51:53;19.10;99.90
31639;DHT22;18248;51.522;7.020;2023-08-24T01:54:52;19.10;99.90
31639;DHT22;18248;51.522;7.020;2023-08-24T01:57:51;19.10;99.90
31639;DHT22;18248;51.522;7.020;2023-08-24T02:00:50;19.00;99.90
31639;DHT22;18248;51.522;7.020;2023-08-24T02:03:48;19.00;99.90
31639;DHT22;18248;51.522;7.020;2023-08-24T02:06:49;19.00;99.90
31639;DHT22;18248;51.522;7.020;2023-08-24T02:09:48;19.10;99.90
31639;DHT22;18248;51.522;7.020;2023-08-24T02:12:47;19.10;99.90
31639;DHT22;18248;51.522;7.020;2023-08-24T02:15:45;19.10;99.90
31639;DHT22;18248;51.522;7.020;2023-08-24T02:18:44;19.20;99.90
31639;DHT22;18248;51.522;7.020;2023-08-24T02:21:43;19.20;99.90
31639;DHT22;18248;51.522;7.020;2023-08-24T02:24:42;19.10;99.90
31639;DHT22;18248;51.522;7.020;2023-08-24T02:27:41;19.10;99.90
31639;DHT22;18248;51.522;7.020;2023-08-24T02:30:39;19.10;99.90
31639;DHT22;18248;51.522;7.020;2023-08-24T02:33:38;19.10;99.90
31639;DHT22;18248;51.522;7.020;2023-08-24T02:36:37;19.00;99.90
31639;DHT22;18248;51.522;7.020;2023-08-24T02:39:37;19.00;99.90
31639;DHT22;18248;51.522;7.020;2023-08-24T02:42:37;18.90;99.90
31639;DHT22;18248;51.522;7.020;2023-08-24T02:45:35;18.90;99.90
31639;DHT22;18248;51.522;7.020;2023-08-24T02:48:34;18.90;99.90
31639;DHT22;18248;51.522;7.020;2023-08-24T02:51:33;18.90;99.90
31639;DHT22;18248;51.522;7.020;2023-08-24T02:54:31;18.80;99.90
31639;DHT22;18248;51.522;7.020;2023-08-24T02:57:30;18.80;99.90
31639;DHT22;18248;51.522;7.020;2023-08-24T03:00:29;18.80;99.90
31639;DHT22;18248;51.522;7.020;2023-08-24T03:03:28;18.80;99.90
31639;DHT22;18248;51.522;7.020;2023-08-24T03:06:27;18.90;99.90
31639;DHT22;18248;51.522;7.020;2023-08-24T03:09:25;18.90;99.90
31639;DHT22;18248;51.522;7.020;2023-08-24T03:12:25;19.00;99.90
31639;DHT22;18248;51.522;7.020;2023-08-24T03:15:23;19.00;99.90
31639;DHT22;18248;51.522;7.020;2023-08-24T03:18:22;19.00;99.90
31639;DHT22;18248;51.522;7.020;2023-08-24T03:21:20;19.00;99.90
31639;DHT22;18248;51.522;7.020;2023-08-24T03:24:19;19.00;99.90
31639;DHT22;18248;51.522;7.020;2023-08-24T03:27:18;19.00;99.90
31639;DHT22;18248;51.522;7.020;2023-08-24T03:30:18;19.00;99.90
31639;DHT22;18248;51.522;7.020;2023-08-24T03:33:16;19.00;99.90
31639;DHT22;18248;51.522;7.020;2023-08-24T03:36:15;19.00;99.90
31639;DHT22;18248;51.522;7.020;2023-08-24T03:39:14;19.00;99.90
31639;DHT22;18248;51.522;7.020;2023-08-24T03:42:13;19.00;99.90
31639;DHT22;18248;51.522;7.020;2023-08-24T03:45:12;19.10;99.90
31639;DHT22;18248;51.522;7.020;2023-08-24T03:48:10;19.20;99.90
31639;DHT22;18248;51.522;7.020;2023-08-24T03:51:09;19.20;99.90
31639;DHT22;18248;51.522;7.020;2023-08-24T03:54:07;19.20;99.90
31639;DHT22;18248;51.522;7.020;2023-08-24T03:57:07;19.20;99.90
31639;DHT22;18248;51.522;7.020;2023-08-24T04:00:06;19.20;99.90
31639;DHT22;18248;51.522;7.020;2023-08-24T04:03:09;19.20;99.90
31639;DHT22;18248;51.522;7.020;2023-08-24T04:06:07;19.20;99.90
31639;DHT22;18248;51.522;7.020;2023-08-24T04:09:06;19.20;99.90
31639;DHT22;18248;51.522;7.020;2023-08-24T04:12:05;19.20;99.90
31639;DHT22;18248;51.522;7.020;2023-08-24T04:15:04;19.20;99.90
31639;DHT22;18248;51.522;7.020;2023-08-24T04:18:03;19.20;99.90
31639;DHT22;18248;51.522;7.020;2023-08-24T04:21:02;19.30;99.90
31639;DHT22;18248;51.522;7.020;2023-08-24T04:24:01;19.30;99.90
31639;DHT22;18248;51.522;7.020;2023-08-24T04:26:59;19.30;99.90
31639;DHT22;18248;51.522;7.020;2023-08-24T04:29:58;19.30;99.90
31639;DHT22;18248;51.522;7.020;2023-08-24T04:32:57;19.40;99.90
31639;DHT22;18248;51.522;7.020;2023-08-24T04:35:58;19.40;99.90
31639;DHT22;18248;51.522;7.020;2023-08-24T04:39:01;19.50;99.90
31639;DHT22;18248;51.522;7.020;2023-08-24T04:41:59;19.40;99.90
31639;DHT22;18248;51.522;7.020;2023-08-24T04:44:58;19.40;99.90
31639;DHT22;18248;51.522;7.020;2023-08-24T04:47:57;19.40;99.90
31639;DHT22;18248;51.522;7.020;2023-08-24T04:50:55;19.40;99.90
31639;DHT22;18248;51.522;7.020;2023-08-24T04:53:55;19.40;99.90
31639;DHT22;18248;51.522;7.020;2023-08-24T04:56:54;19.40;99.90
31639;DHT22;18248;51.522;7.020;2023-08-24T04:59:52;19.30;99.90
31639;DHT22;18248;51.522;7.020;2023-08-24T05:02:51;19.30;99.90
31639;DHT22;18248;51.522;7.020;2023-08-24T05:05:49;19.20;99.90
31639;DHT22;18248;51.522;7.020;2023-08-24T05:08:48;19.20;99.90
31639;DHT22;18248;51.522;7.020;2023-08-24T05:11:47;19.20;99.90
31639;DHT22;18248;51.522;7.020;2023-08-24T05:14:45;19.10;99.90
31639;DHT22;18248;51.522;7.020;2023-08-24T05:17:44;19.20;99.90
31639;DHT22;18248;51.522;7.020;2023-08-24T05:20:42;19.20;99.90
31639;DHT22;18248;51.522;7.020;2023-08-24T05:23:41;19.20;99.90
31639;DHT22;18248;51.522;7.020;2023-08-24T05:26:39;19.20;99.90
31639;DHT22;18248;51.522;7.020;2023-08-24T05:29:38;19.20;99.90
31639;DHT22;18248;51.522;7.020;2023-08-24T05:32:36;19.20;99.90
31639;DHT22;18248;51.522;7.020;2023-08-24T05:35:36;19.20;99.90
31639;DHT22;18248;51.522;7.020;2023-08-24T05:38:35;19.20;99.90
31639;DHT22;18248;51.522;7.020;2023-08-24T05:41:33;19.30;99.90
31639;DHT22;18248;51.522;7.020;2023-08-24T05:44:32;19.30;99.90
31639;DHT22;18248;51.522;7.020;2023-08-24T05:47:31;19.40;99.90
31639;DHT22;18248;51.522;7.020;2023-08-24T05:50:29;19.40;99.90
31639;DHT22;18248;51.522;7.020;2023-08-24T05:53:28;19.50;99.90
31639;DHT22;18248;51.522;7.020;2023-08-24T05:56:26;19.60;99.90
31639;DHT22;18248;51.522;7.020;2023-08-24T05:59:25;19.70;99.90
31639;DHT22;18248;51.522;7.020;2023-08-24T06:02:23;19.70;99.90
31639;DHT22;18248;51.522;7.020;2023-08-24T06:05:22;19.80;99.90
31639;DHT22;18248;51.522;7.020;2023-08-24T06:08:21;19.80;99.90
31639;DHT22;18248;51.522;7.020;2023-08-24T06:11:20;19.90;99.90
31639;DHT22;18248;51.522;7.020;2023-08-24T06:14:18;20.00;99.90
31639;DHT22;18248;51.522;7.020;2023-08-24T06:17:17;20.10;99.90
31639;DHT22;18248;51.522;7.020;2023-08-24T06:20:16;20.20;99.90
31639;DHT22;18248;51.522;7.020;2023-08-24T06:23:18;20.30;99.90
31639;DHT22;18248;51.522;7.020;2023-08-24T06:26:20;20.50;99.90
31639;DHT22;18248;51.522;7.020;2023-08-24T06:29:19;20.60;99.90
31639;DHT22;18248;51.522;7.020;2023-08-24T06:32:18;20.80;99.90
31639;DHT22;18248;51.522;7.020;2023-08-24T06:35:17;21.00;99.90
31639;DHT22;18248;51.522;7.020;2023-08-24T06:38:16;21.20;99.90
31639;DHT22;18248;51.522;7.020;2023-08-24T06:41:14;21.40;99.90
31639;DHT22;18248;51.522;7.020;2023-08-24T06:44:13;21.60;99.90
31639;DHT22;18248;51.522;7.020;2023-08-24T06:47:11;21.80;99.90
31639;DHT22;18248;51.522;7.020;2023-08-24T06:50:10;21.90;99.90
31639;DHT22;18248;51.522;7.020;2023-08-24T06:53:09;22.00;99.90
31639;DHT22;18248;51.522;7.020;2023-08-24T06:56:08;22.30;99.90
31639;DHT22;18248;51.522;7.020;2023-08-24T06:59:07;22.60;99.90
31639;DHT22;18248;51.522;7.020;2023-08-24T07:02:05;23.10;99.90
31639;DHT22;18248;51.522;7.020;2023-08-24T07:05:04;23.50;99.90
31639;DHT22;18248;51.522;7.020;2023-08-24T07:08:04;24.10;99.90
31639;DHT22;18248;51.522;7.020;2023-08-24T07:11:04;25.30;99.90
31639;DHT22;18248;51.522;7.020;2023-08-24T07:14:02;26.50;99.90
31639;DHT22;18248;51.522;7.020;2023-08-24T07:17:01;27.60;99.90
31639;DHT22;18248;51.522;7.020;2023-08-24T07:19:59;28.70;99.90
31639;DHT22;18248;51.522;7.020;2023-08-24T07:22:58;29.60;99.90
31639;DHT22;18248;51.522;7.020;2023-08-24T07:25:56;30.40;99.90
31639;DHT22;18248;51.522;7.020;2023-08-24T07:28:55;31.00;99.90
31639;DHT22;18248;51.522;7.020;2023-08-24T07:31:55;31.80;99.90
31639;DHT22;18248;51.522;7.020;2023-08-24T07:34:54;32.60;99.90
31639;DHT22;18248;51.522;7.020;2023-08-24T07:37:52;33.30;99.90
31639;DHT22;18248;51.522;7.020;2023-08-24T07:40:51;33.70;99.90
31639;DHT22;18248;51.522;7.020;2023-08-24T07:43:50;34.30;99.90
31639;DHT22;18248;51.522;7.020;2023-08-24T07:46:52;34.50;99.90
31639;DHT22;18248;51.522;7.020;2023-08-24T07:49:51;34.60;99.90
31639;DHT22;18248;51.522;7.020;2023-08-24T07:52:49;34.60;98.60
31639;DHT22;18248;51.522;7.020;2023-08-24T07:55:48;34.60;94.90
31639;DHT22;18248;51.522;7.020;2023-08-24T07:58:46;34.30;93.30
31639;DHT22;18248;51.522;7.020;2023-08-24T08:01:45;34.30;94.80
31639;DHT22;18248;51.522;7.020;2023-08-24T08:04:43;34.50;95.00
31639;DHT22;18248;51.522;7.020;2023-08-24T08:07:42;34.50;92.30
31639;DHT22;18248;51.522;7.020;2023-08-24T08:10:41;34.50;92.60
31639;DHT22;18248;51.522;7.020;2023-08-24T08:13:40;34.80;92.90
31639;DHT22;18248;51.522;7.020;2023-08-24T08:16:39;35.30;93.20
31639;DHT22;18248;51.522;7.020;2023-08-24T08:19:38;35.60;90.80
31639;DHT22;18248;51.522;7.020;2023-08-24T08:22:36;35.90;91.10
31639;DHT22;18248;51.522;7.020;2023-08-24T08:25:36;36.30;87.90
31639;DHT22;18248;51.522;7.020;2023-08-24T08:28:36;36.30;84.40
31639;DHT22;18248;51.522;7.020;2023-08-24T08:31:34;36.30;83.70
31639;DHT22;18248;51.522;7.020;2023-08-24T08:34:33;36.20;84.20
31639;DHT22;18248;51.522;7.020;2023-08-24T08:37:32;36.10;84.10
31639;DHT22;18248;51.522;7.020;2023-08-24T08:40:31;36.10;83.90
31639;DHT22;18248;51.522;7.020;2023-08-24T08:43:30;35.90;81.60
31639;DHT22;18248;51.522;7.020;2023-08-24T08:46:29;35.70;81.00
31639;DHT22;18248;51.522;7.020;2023-08-24T08:49:30;35.40;79.80
31639;DHT22;18248;51.522;7.020;2023-08-24T08:52:31;35.40;81.70
31639;DHT22;18248;51.522;7.020;2023-08-24T08:55:31;35.10;81.40
31639;DHT22;18248;51.522;7.020;2023-08-24T08:58:31;34.70;79.60
31639;DHT22;18248;51.522;7.020;2023-08-24T09:01:30;34.30;82.20
31639;DHT22;18248;51.522;7.020;2023-08-24T09:04:32;34.00;85.00
31639;DHT22;18248;51.522;7.020;2023-08-24T09:07:32;33.50;83.50
31639;DHT22;18248;51.522;7.020;2023-08-24T09:10:32;33.00;85.00
31639;DHT22;18248;51.522;7.020;2023-08-24T09:13:30;32.30;87.10
31639;DHT22;18248;51.522;7.020;2023-08-24T09:16:30;31.90;90.50
31639;DHT22;18248;51.522;7.020;2023-08-24T09:19:32;31.70;91.30
31639;DHT22;18248;51.522;7.020;2023-08-24T09:22:35;31.40;90.20
31639;DHT22;18248;51.522;7.020;2023-08-24T09:25:45;31.20;91.50
31639;DHT22;18248;51.522;7.020;2023-08-24T09:28:43;31.10;92.40
31639;DHT22;18248;51.522;7.020;2023-08-24T09:31:43;30.90;92.50
31639;DHT22;18248;51.522;7.020;2023-08-24T09:34:44;30.90;94.00
31639;DHT22;18248;51.522;7.020;2023-08-24T09:37:43;30.80;93.30
31639;DHT22;18248;51.522;7.020;2023-08-24T09:40:50;30.60;94.30
31639;DHT22;18248;51.522;7.020;2023-08-24T09:43:49;30.60;95.50
31639;DHT22;18248;51.522;7.020;2023-08-24T09:46:50;30.70;96.40
31639;DHT22;18248;51.522;7.020;2023-08-24T09:49:49;30.70;96.80
31639;DHT22;18248;51.522;7.020;2023-08-24T09:52:49;30.70;95.20
31639;DHT22;18248;51.522;7.020;2023-08-24T09:56:09;30.70;95.90
31639;DHT22;18248;51.522;7.020;2023-08-24T09:59:17;30.70;95.70
31639;DHT22;18248;51.522;7.020;2023-08-24T10:02:20;30.70;96.10
31639;DHT22;18248;51.522;7.020;2023-08-24T10:05:23;30.80;97.30
31639;DHT22;18248;51.522;7.020;2023-08-24T10:08:29;30.90;99.90
31639;DHT22;18248;51.522;7.020;2023-08-24T10:11:33;30.90;97.90
31639;DHT22;18248;51.522;7.020;2023-08-24T10:14:40;30.90;98.00
31639;DHT22;18248;51.522;7.020;2023-08-24T10:17:42;31.00;98.50
31639;DHT22;18248;51.522;7.020;2023-08-24T10:20:43;31.10;99.00
31639;DHT22;18248;51.522;7.020;2023-08-24T10:23:43;31.20;97.80
31639;DHT22;18248;51.522;7.020;2023-08-24T10:26:42;31.10;98.00
31639;DHT22;18248;51.522;7.020;2023-08-24T10:29:46;31.10;99.60
31639;DHT22;18248;51.522;7.020;2023-08-24T10:32:45;31.10;99.90
31639;DHT22;18248;51.522;7.020;2023-08-24T10:35:47;31.20;99.90
31639;DHT22;18248;51.522;7.020;2023-08-24T10:38:46;31.30;99.90
31639;DHT22;18248;51.522;7.020;2023-08-24T10:41:50;31.30;99.90
31639;DHT22;18248;51.522;7.020;2023-08-24T10:44:49;31.30;99.90
31639;DHT22;18248;51.522;7.020;2023-08-24T10:47:52;31.30;99.90
31639;DHT22;18248;51.522;7.020;2023-08-24T10:54:14;31.20;99.90
31639;DHT22;18248;51.522;7.020;2023-08-24T10:57:30;31.20;99.90
31639;DHT22;18248;51.522;7.020;2023-08-24T11:00:32;31.40;99.90
31639;DHT22;18248;51.522;7.020;2023-08-24T11:03:34;31.50;99.90
31639;DHT22;18248;51.522;7.020;2023-08-24T11:06:33;31.60;99.90
31639;DHT22;18248;51.522;7.020;2023-08-24T11:09:47;31.70;99.90
31639;DHT22;18248;51.522;7.020;2023-08-24T11:16:03;31.60;99.90
31639;DHT22;18248;51.522;7.020;2023-08-24T11:19:06;31.50;98.70
31639;DHT22;18248;51.522;7.020;2023-08-24T11:22:05;31.40;98.30
31639;DHT22;18248;51.522;7.020;2023-08-24T11:25:04;31.30;98.00
31639;DHT22;18248;51.522;7.020;2023-08-24T11:28:04;31.20;97.60
31639;DHT22;18248;51.522;7.020;2023-08-24T11:31:03;31.10;97.20
31639;DHT22;18248;51.522;7.020;2023-08-24T11:34:02;31.00;97.80
31639;DHT22;18248;51.522;7.020;2023-08-24T11:37:01;30.90;98.10
31639;DHT22;18248;51.522;7.020;2023-08-24T11:40:00;30.90;98.00
31639;DHT22;18248;51.522;7.020;2023-08-24T11:42:59;30.90;98.60
31639;DHT22;18248;51.522;7.020;2023-08-24T11:45:58;30.70;98.90
31639;DHT22;18248;51.522;7.020;2023-08-24T11:48:58;30.60;99.90
31639;DHT22;18248;51.522;7.020;2023-08-24T11:51:57;30.30;99.30
31639;DHT22;18248;51.522;7.020;2023-08-24T11:54:58;30.20;99.90
31639;DHT22;18248;51.522;7.020;2023-08-24T11:57:57;30.10;99.90
31639;DHT22;18248;51.522;7.020;2023-08-24T12:00:55;29.90;99.90
31639;DHT22;18248;51.522;7.020;2023-08-24T12:03:54;29.90;99.90
31639;DHT22;18248;51.522;7.020;2023-08-24T12:06:53;30.00;99.90
31639;DHT22;18248;51.522;7.020;2023-08-24T12:09:52;30.00;99.90
31639;DHT22;18248;51.522;7.020;2023-08-24T12:13:05;30.00;99.90
31639;DHT22;18248;51.522;7.020;2023-08-24T12:16:04;29.90;99.90
31639;DHT22;18248;51.522;7.020;2023-08-24T12:19:07;30.00;99.90
31639;DHT22;18248;51.522;7.020;2023-08-24T12:22:05;30.00;99.90
31639;DHT22;18248;51.522;7.020;2023-08-24T12:25:04;30.20;99.90
31639;DHT22;18248;51.522;7.020;2023-08-24T12:28:14;30.10;99.90
31639;DHT22;18248;51.522;7.020;2023-08-24T12:31:14;30.20;99.90
31639;DHT22;18248;51.522;7.020;2023-08-24T12:34:14;30.00;99.90
31639;DHT22;18248;51.522;7.020;2023-08-24T12:37:13;29.90;99.90
31639;DHT22;18248;51.522;7.020;2023-08-24T12:40:13;29.80;99.90
31639;DHT22;18248;51.522;7.020;2023-08-24T12:43:11;29.80;99.90
31639;DHT22;18248;51.522;7.020;2023-08-24T12:46:10;29.80;99.90
31639;DHT22;18248;51.522;7.020;2023-08-24T12:49:08;29.80;99.90
31639;DHT22;18248;51.522;7.020;2023-08-24T12:52:07;29.70;99.90
31639;DHT22;18248;51.522;7.020;2023-08-24T12:55:06;29.70;99.90
31639;DHT22;18248;51.522;7.020;2023-08-24T12:58:04;29.60;99.90
31639;DHT22;18248;51.522;7.020;2023-08-24T13:01:03;29.50;99.90
31639;DHT22;18248;51.522;7.020;2023-08-24T13:04:03;29.30;99.90
31639;DHT22;18248;51.522;7.020;2023-08-24T13:07:01;29.00;99.90
31639;DHT22;18248;51.522;7.020;2023-08-24T13:10:00;28.90;99.90
31639;DHT22;18248;51.522;7.020;2023-08-24T13:12:58;28.80;99.90
31639;DHT22;18248;51.522;7.020;2023-08-24T13:15:57;28.70;99.90
31639;DHT22;18248;51.522;7.020;2023-08-24T13:18:55;28.70;99.90
31639;DHT22;18248;51.522;7.020;2023-08-24T13:21:54;28.70;99.90
31639;DHT22;18248;51.522;7.020;2023-08-24T13:24:52;28.70;99.90
31639;DHT22;18248;51.522;7.020;2023-08-24T13:27:51;28.70;99.90
31639;DHT22;18248;51.522;7.020;2023-08-24T13:30:51;28.70;99.90
31639;DHT22;18248;51.522;7.020;2023-08-24T13:33:50;28.70;99.90
31639;DHT22;18248;51.522;7.020;2023-08-24T13:36:48;28.70;99.90
31639;DHT22;18248;51.522;7.020;2023-08-24T13:39:47;28.80;99.90
31639;DHT22;18248;51.522;7.020;2023-08-24T13:42:45;28.90;99.90
31639;DHT22;18248;51.522;7.020;2023-08-24T13:45:44;28.90;99.90
31639;DHT22;18248;51.522;7.020;2023-08-24T13:48:42;29.00;99.90
31639;DHT22;18248;51.522;7.020;2023-08-24T13:51:41;29.00;99.90
31639;DHT22;18248;51.522;7.020;2023-08-24T13:54:39;28.90;99.90
31639;DHT22;18248;51.522;7.020;2023-08-24T13:57:38;28.90;99.90
31639;DHT22;18248;51.522;7.020;2023-08-24T14:00:36;28.90;99.90
31639;DHT22;18248;51.522;7.020;2023-08-24T14:03:35;28.90;99.90
31639;DHT22;18248;51.522;7.020;2023-08-24T14:06:34;28.70;99.90
31639;DHT22;18248;51.522;7.020;2023-08-24T14:09:34;28.70;99.90
31639;DHT22;18248;51.522;7.020;2023-08-24T14:12:33;28.70;99.90
31639;DHT22;18248;51.522;7.020;2023-08-24T14:15:32;28.80;99.90
31639;DHT22;18248;51.522;7.020;2023-08-24T14:18:31;28.70;99.90
31639;DHT22;18248;51.522;7.020;2023-08-24T14:21:29;28.60;99.90
31639;DHT22;18248;51.522;7.020;2023-08-24T14:24:28;28.60;99.90
31639;DHT22;18248;51.522;7.020;2023-08-24T14:27:28;28.60;99.90
31639;DHT22;18248;51.522;7.020;2023-08-24T14:30:26;28.50;99.90
31639;DHT22;18248;51.522;7.020;2023-08-24T14:33:25;28.50;99.90
31639;DHT22;18248;51.522;7.020;2023-08-24T14:36:24;28.40;99.90
31639;DHT22;18248;51.522;7.020;2023-08-24T14:39:22;28.40;99.90
31639;DHT22;18248;51.522;7.020;2023-08-24T14:42:21;28.30;99.90
31639;DHT22;18248;51.522;7.020;2023-08-24T14:45:19;28.40;99.90
31639;DHT22;18248;51.522;7.020;2023-08-24T14:48:18;28.30;99.90
31639;DHT22;18248;51.522;7.020;2023-08-24T14:51:16;28.30;99.90
31639;DHT22;18248;51.522;7.020;2023-08-24T14:54:15;28.30;99.90
31639;DHT22;18248;51.522;7.020;2023-08-24T14:57:14;28.30;99.90
31639;DHT22;18248;51.522;7.020;2023-08-24T15:00:13;28.20;99.90
31639;DHT22;18248;51.522;7.020;2023-08-24T15:03:12;28.10;99.90
31639;DHT22;18248;51.522;7.020;2023-08-24T15:06:11;28.00;99.90
31639;DHT22;18248;51.522;7.020;2023-08-24T15:09:09;27.90;99.90
31639;DHT22;18248;51.522;7.020;2023-08-24T15:12:08;27.80;99.90
31639;DHT22;18248;51.522;7.020;2023-08-24T15:15:07;27.80;99.90
31639;DHT22;18248;51.522;7.020;2023-08-24T15:18:05;27.60;99.90
31639;DHT22;18248;51.522;7.020;2023-08-24T15:21:04;27.60;99.90
31639;DHT22;18248;51.522;7.020;2023-08-24T15:24:03;27.50;99.90
31639;DHT22;18248;51.522;7.020;2023-08-24T15:27:02;27.50;99.90
31639;DHT22;18248;51.522;7.020;2023-08-24T15:30:00;27.40;99.90
31639;DHT22;18248;51.522;7.020;2023-08-24T15:33:02;27.30;99.90
31639;DHT22;18248;51.522;7.020;2023-08-24T15:36:00;27.20;99.90
31639;DHT22;18248;51.522;7.020;2023-08-24T15:38:59;27.00;99.90
31639;DHT22;18248;51.522;7.020;2023-08-24T15:41:57;26.90;99.90
31639;DHT22;18248;51.522;7.020;2023-08-24T15:44:56;26.90;99.90
31639;DHT22;18248;51.522;7.020;2023-08-24T15:47:57;26.70;99.90
31639;DHT22;18248;51.522;7.020;2023-08-24T15:50:58;26.60;99.90
31639;DHT22;18248;51.522;7.020;2023-08-24T15:53:58;26.60;99.90
31639;DHT22;18248;51.522;7.020;2023-08-24T15:56:58;26.40;99.90
31639;DHT22;18248;51.522;7.020;2023-08-24T15:59:57;26.40;99.90
31639;DHT22;18248;51.522;7.020;2023-08-24T16:02:57;26.30;99.90
31639;DHT22;18248;51.522;7.020;2023-08-24T16:05:56;26.20;99.90
31639;DHT22;18248;51.522;7.020;2023-08-24T16:08:56;26.10;99.90
31639;DHT22;18248;51.522;7.020;2023-08-24T16:11:54;25.90;99.90
31639;DHT22;18248;51.522;7.020;2023-08-24T16:14:54;25.80;99.90
31639;DHT22;18248;51.522;7.020;2023-08-24T16:17:53;25.70;99.90
31639;DHT22;18248;51.522;7.020;2023-08-24T16:20:52;25.70;99.90
31639;DHT22;18248;51.522;7.020;2023-08-24T16:23:51;25.50;99.90
31639;DHT22;18248;51.522;7.020;2023-08-24T16:26:50;25.50;99.90
31639;DHT22;18248;51.522;7.020;2023-08-24T16:29:48;25.40;99.90
31639;DHT22;18248;51.522;7.020;2023-08-24T16:32:47;25.20;99.90
31639;DHT22;18248;51.522;7.020;2023-08-24T16:35:46;25.10;99.90
31639;DHT22;18248;51.522;7.020;2023-08-24T16:38:45;25.10;99.90
31639;DHT22;18248;51.522;7.020;2023-08-24T16:41:44;25.00;99.90
31639;DHT22;18248;51.522;7.020;2023-08-24T16:44:42;24.90;99.90
31639;DHT22;18248;51.522;7.020;2023-08-24T16:47:41;24.90;99.90
31639;DHT22;18248;51.522;7.020;2023-08-24T16:50:39;24.80;99.90
31639;DHT22;18248;51.522;7.020;2023-08-24T16:53:38;24.80;99.90
31639;DHT22;18248;51.522;7.020;2023-08-24T16:56:39;24.80;99.90
31639;DHT22;18248;51.522;7.020;2023-08-24T16:59:38;24.70;99.90
31639;DHT22;18248;51.522;7.020;2023-08-24T17:02:37;24.70;99.90
31639;DHT22;18248;51.522;7.020;2023-08-24T17:05:36;24.70;99.90
31639;DHT22;18248;51.522;7.020;2023-08-24T17:08:34;24.70;99.90
31639;DHT22;18248;51.522;7.020;2023-08-24T17:11:33;24.70;99.90
31639;DHT22;18248;51.522;7.020;2023-08-24T17:14:32;24.70;99.90
31639;DHT22;18248;51.522;7.020;2023-08-24T17:17:30;24.70;99.90
31639;DHT22;18248;51.522;7.020;2023-08-24T17:20:29;24.70;99.90
31639;DHT22;18248;51.522;7.020;2023-08-24T17:23:27;24.80;99.90
31639;DHT22;18248;51.522;7.020;2023-08-24T17:26:27;24.80;99.90
31639;DHT22;18248;51.522;7.020;2023-08-24T17:29:25;24.80;99.90
31639;DHT22;18248;51.522;7.020;2023-08-24T17:32:24;24.80;99.90
31639;DHT22;18248;51.522;7.020;2023-08-24T17:35:25;24.80;99.90
31639;DHT22;18248;51.522;7.020;2023-08-24T17:38:26;24.80;99.90
31639;DHT22;18248;51.522;7.020;2023-08-24T17:41:27;24.90;99.90
31639;DHT22;18248;51.522;7.020;2023-08-24T17:44:26;24.90;99.90
31639;DHT22;18248;51.522;7.020;2023-08-24T17:47:28;24.90;99.90
31639;DHT22;18248;51.522;7.020;2023-08-24T17:50:26;24.80;99.90
31639;DHT22;18248;51.522;7.020;2023-08-24T17:53:25;24.80;99.90
31639;DHT22;18248;51.522;7.020;2023-08-24T17:56:26;24.80;99.90
31639;DHT22;18248;51.522;7.020;2023-08-24T17:59:29;24.80;99.90
31639;DHT22;18248;51.522;7.020;2023-08-24T18:02:27;24.80;99.90
31639;DHT22;18248;51.522;7.020;2023-08-24T18:05:26;24.80;99.90
31639;DHT22;18248;51.522;7.020;2023-08-24T18:08:24;24.60;99.90
31639;DHT22;18248;51.522;7.020;2023-08-24T18:11:23;24.60;99.90
31639;DHT22;18248;51.522;7.020;2023-08-24T18:14:21;24.50;99.90
31639;DHT22;18248;51.522;7.020;2023-08-24T18:17:20;24.40;99.90
31639;DHT22;18248;51.522;7.020;2023-08-24T18:20:20;24.50;99.90
31639;DHT22;18248;51.522;7.020;2023-08-24T18:23:19;24.40;99.90
31639;DHT22;18248;51.522;7.020;2023-08-24T18:26:17;24.40;99.90
31639;DHT22;18248;51.522;7.020;2023-08-24T18:29:16;24.30;99.90
31639;DHT22;18248;51.522;7.020;2023-08-24T18:32:15;24.30;99.90
31639;DHT22;18248;51.522;7.020;2023-08-24T18:35:14;24.30;99.90
31639;DHT22;18248;51.522;7.020;2023-08-24T18:38:12;24.20;99.90
31639;DHT22;18248;51.522;7.020;2023-08-24T18:41:11;24.10;99.90
31639;DHT22;18248;51.522;7.020;2023-08-24T18:44:09;24.00;99.90
31639;DHT22;18248;51.522;7.020;2023-08-24T18:47:08;23.90;99.90
31639;DHT22;18248;51.522;7.020;2023-08-24T18:50:06;23.80;99.90
31639;DHT22;18248;51.522;7.020;2023-08-24T18:53:05;23.80;99.90
31639;DHT22;18248;51.522;7.020;2023-08-24T18:56:04;23.70;99.90
31639;DHT22;18248;51.522;7.020;2023-08-24T18:59:02;23.60;99.90
31639;DHT22;18248;51.522;7.020;2023-08-24T19:02:01;23.60;99.90